sensor_id;sensor_type;location;lat;lon;timestamp;P1;durP1;ratioP1;P2;durP2;ratioP2
50393;SDS011;36308;46.312;25.288;2023-04-15T00:01:06;5.63;;;2.50;;
50393;SDS011;36308;46.312;25.288;2023-04-15T00:03:32;6.70;;;3.25;;
50393;SDS011;36308;46.312;25.288;2023-04-15T00:05:58;5.97;;;3.10;;
50393;SDS011;36308;46.312;25.288;2023-04-15T00:08:24;6.10;;;3.92;;
50393;SDS011;36308;46.312;25.288;2023-04-15T00:10:49;5.47;;;3.20;;
50393;SDS011;36308;46.312;25.288;2023-04-15T00:13:15;5.97;;;3.00;;
50393;SDS011;36308;46.312;25.288;2023-04-15T00:15:41;5.18;;;2.67;;
50393;SDS011;36308;46.312;25.288;2023-04-15T00:18:07;4.40;;;2.50;;
50393;SDS011;36308;46.312;25.288;2023-04-15T00:20:33;5.32;;;2.53;;
50393;SDS011;36308;46.312;25.288;2023-04-15T00:22:59;6.53;;;3.00;;
50393;SDS011;36308;46.312;25.288;2023-04-15T00:25:26;5.03;;;2.40;;
50393;SDS011;36308;46.312;25.288;2023-04-15T00:27:52;5.53;;;2.03;;
50393;SDS011;36308;46.312;25.288;2023-04-15T00:30:17;4.47;;;1.80;;
50393;SDS011;36308;46.312;25.288;2023-04-15T00:32:43;1.83;;;1.40;;
50393;SDS011;36308;46.312;25.288;2023-04-15T00:35:09;3.13;;;1.45;;
50393;SDS011;36308;46.312;25.288;2023-04-15T00:37:36;3.30;;;1.42;;
50393;SDS011;36308;46.312;25.288;2023-04-15T00:40:01;2.85;;;1.30;;
50393;SDS011;36308;46.312;25.288;2023-04-15T00:42:30;1.98;;;1.13;;
50393;SDS011;36308;46.312;25.288;2023-04-15T00:44:56;1.60;;;1.10;;
50393;SDS011;36308;46.312;25.288;2023-04-15T00:47:21;2.13;;;1.00;;
50393;SDS011;36308;46.312;25.288;2023-04-15T00:49:47;2.05;;;1.20;;
50393;SDS011;36308;46.312;25.288;2023-04-15T00:52:14;2.03;;;1.10;;
50393;SDS011;36308;46.312;25.288;2023-04-15T00:54:39;3.25;;;1.35;;
50393;SDS011;36308;46.312;25.288;2023-04-15T00:57:05;4.32;;;1.52;;
50393;SDS011;36308;46.312;25.288;2023-04-15T00:59:32;3.28;;;1.70;;
50393;SDS011;36308;46.312;25.288;2023-04-15T01:01:58;2.45;;;1.40;;
50393;SDS011;36308;46.312;25.288;2023-04-15T01:04:23;2.42;;;1.40;;
50393;SDS011;36308;46.312;25.288;2023-04-15T01:06:49;6.18;;;2.30;;
50393;SDS011;36308;46.312;25.288;2023-04-15T01:09:15;3.33;;;1.90;;
50393;SDS011;36308;46.312;25.288;2023-04-15T01:11:41;5.43;;;2.40;;
50393;SDS011;36308;46.312;25.288;2023-04-15T01:14:08;3.08;;;1.85;;
50393;SDS011;36308;46.312;25.288;2023-04-15T01:16:35;4.68;;;1.50;;
50393;SDS011;36308;46.312;25.288;2023-04-15T01:19:04;3.67;;;1.42;;
50393;SDS011;36308;46.312;25.288;2023-04-15T01:21:35;2.25;;;1.30;;
50393;SDS011;36308;46.312;25.288;2023-04-15T01:24:02;3.33;;;1.38;;
50393;SDS011;36308;46.312;25.288;2023-04-15T01:26:33;2.53;;;1.20;;
50393;SDS011;36308;46.312;25.288;2023-04-15T01:29:00;2.83;;;1.30;;
50393;SDS011;36308;46.312;25.288;2023-04-15T01:31:26;2.53;;;1.25;;
50393;SDS011;36308;46.312;25.288;2023-04-15T01:33:51;2.80;;;1.45;;
50393;SDS011;36308;46.312;25.288;2023-04-15T01:36:16;4.80;;;1.45;;
50393;SDS011;36308;46.312;25.288;2023-04-15T01:38:42;4.55;;;1.50;;
50393;SDS011;36308;46.312;25.288;2023-04-15T01:41:08;3.72;;;1.58;;
50393;SDS011;36308;46.312;25.288;2023-04-15T01:43:34;2.85;;;1.45;;
50393;SDS011;36308;46.312;25.288;2023-04-15T01:46:01;2.03;;;1.20;;
50393;SDS011;36308;46.312;25.288;2023-04-15T01:48:27;3.80;;;1.30;;
50393;SDS011;36308;46.312;25.288;2023-04-15T01:50:53;3.65;;;1.42;;
50393;SDS011;36308;46.312;25.288;2023-04-15T01:53:21;2.88;;;1.90;;
50393;SDS011;36308;46.312;25.288;2023-04-15T01:55:47;5.50;;;2.05;;
50393;SDS011;36308;46.312;25.288;2023-04-15T01:58:13;4.43;;;1.60;;
50393;SDS011;36308;46.312;25.288;2023-04-15T02:00:39;3.00;;;1.83;;
50393;SDS011;36308;46.312;25.288;2023-04-15T02:03:04;2.13;;;1.30;;
50393;SDS011;36308;46.312;25.288;2023-04-15T02:05:30;2.80;;;1.20;;
50393;SDS011;36308;46.312;25.288;2023-04-15T02:07:56;2.42;;;0.93;;
50393;SDS011;36308;46.312;25.288;2023-04-15T02:10:22;1.10;;;0.75;;
50393;SDS011;36308;46.312;25.288;2023-04-15T02:12:47;1.60;;;0.80;;
50393;SDS011;36308;46.312;25.288;2023-04-15T02:15:13;2.50;;;1.00;;
50393;SDS011;36308;46.312;25.288;2023-04-15T02:17:39;4.43;;;1.10;;
50393;SDS011;36308;46.312;25.288;2023-04-15T02:20:05;2.38;;;0.88;;
50393;SDS011;36308;46.312;25.288;2023-04-15T02:22:32;1.75;;;1.08;;
50393;SDS011;36308;46.312;25.288;2023-04-15T02:24:58;37.83;;;22.40;;
50393;SDS011;36308;46.312;25.288;2023-04-15T02:27:23;9.80;;;5.35;;
50393;SDS011;36308;46.312;25.288;2023-04-15T02:29:49;8.43;;;3.80;;
50393;SDS011;36308;46.312;25.288;2023-04-15T02:32:17;5.53;;;3.50;;
50393;SDS011;36308;46.312;25.288;2023-04-15T02:34:44;8.55;;;4.68;;
50393;SDS011;36308;46.312;25.288;2023-04-15T02:37:10;5.40;;;3.25;;
50393;SDS011;36308;46.312;25.288;2023-04-15T02:39:36;4.75;;;2.88;;
50393;SDS011;36308;46.312;25.288;2023-04-15T02:42:02;20.00;;;10.80;;
50393;SDS011;36308;46.312;25.288;2023-04-15T02:44:29;90.93;;;49.75;;
50393;SDS011;36308;46.312;25.288;2023-04-15T02:46:55;37.35;;;22.45;;
50393;SDS011;36308;46.312;25.288;2023-04-15T02:49:22;24.23;;;15.48;;
50393;SDS011;36308;46.312;25.288;2023-04-15T02:51:48;20.92;;;10.50;;
50393;SDS011;36308;46.312;25.288;2023-04-15T02:54:20;9.60;;;5.00;;
50393;SDS011;36308;46.312;25.288;2023-04-15T02:56:49;4.85;;;2.35;;
50393;SDS011;36308;46.312;25.288;2023-04-15T02:59:16;7.00;;;3.20;;
50393;SDS011;36308;46.312;25.288;2023-04-15T03:01:41;4.88;;;2.40;;
50393;SDS011;36308;46.312;25.288;2023-04-15T03:04:07;4.07;;;2.92;;
50393;SDS011;36308;46.312;25.288;2023-04-15T03:06:33;4.85;;;3.55;;
50393;SDS011;36308;46.312;25.288;2023-04-15T03:08:59;6.72;;;2.70;;
50393;SDS011;36308;46.312;25.288;2023-04-15T03:11:26;4.88;;;2.00;;
50393;SDS011;36308;46.312;25.288;2023-04-15T03:13:52;6.50;;;2.28;;
50393;SDS011;36308;46.312;25.288;2023-04-15T03:16:18;4.70;;;2.55;;
50393;SDS011;36308;46.312;25.288;2023-04-15T03:18:43;5.88;;;2.15;;
50393;SDS011;36308;46.312;25.288;2023-04-15T03:21:09;4.30;;;2.25;;
50393;SDS011;36308;46.312;25.288;2023-04-15T03:23:34;7.03;;;2.63;;
50393;SDS011;36308;46.312;25.288;2023-04-15T03:26:03;4.85;;;3.00;;
50393;SDS011;36308;46.312;25.288;2023-04-15T03:28:29;4.10;;;2.63;;
50393;SDS011;36308;46.312;25.288;2023-04-15T03:30:56;4.05;;;1.90;;
50393;SDS011;36308;46.312;25.288;2023-04-15T03:33:22;2.97;;;1.95;;
50393;SDS011;36308;46.312;25.288;2023-04-15T03:35:48;4.07;;;2.22;;
50393;SDS011;36308;46.312;25.288;2023-04-15T03:38:15;6.15;;;3.17;;
50393;SDS011;36308;46.312;25.288;2023-04-15T03:40:41;8.30;;;4.45;;
50393;SDS011;36308;46.312;25.288;2023-04-15T03:43:07;6.68;;;4.22;;
50393;SDS011;36308;46.312;25.288;2023-04-15T03:45:32;9.10;;;4.10;;
50393;SDS011;36308;46.312;25.288;2023-04-15T03:47:58;16.67;;;11.43;;
50393;SDS011;36308;46.312;25.288;2023-04-15T03:50:23;11.77;;;6.82;;
50393;SDS011;36308;46.312;25.288;2023-04-15T03:52:49;9.45;;;4.45;;
50393;SDS011;36308;46.312;25.288;2023-04-15T03:55:14;3.47;;;2.45;;
50393;SDS011;36308;46.312;25.288;2023-04-15T03:57:40;4.72;;;2.28;;
50393;SDS011;36308;46.312;25.288;2023-04-15T04:00:06;4.82;;;1.83;;
50393;SDS011;36308;46.312;25.288;2023-04-15T04:02:34;3.22;;;1.85;;
50393;SDS011;36308;46.312;25.288;2023-04-15T04:04:59;2.28;;;1.50;;
50393;SDS011;36308;46.312;25.288;2023-04-15T04:07:25;3.05;;;1.90;;
50393;SDS011;36308;46.312;25.288;2023-04-15T04:09:50;3.65;;;2.13;;
50393;SDS011;36308;46.312;25.288;2023-04-15T04:12:16;3.67;;;2.30;;
50393;SDS011;36308;46.312;25.288;2023-04-15T04:14:41;6.03;;;3.33;;
50393;SDS011;36308;46.312;25.288;2023-04-15T04:17:07;6.70;;;3.88;;
50393;SDS011;36308;46.312;25.288;2023-04-15T04:19:33;13.02;;;4.13;;
50393;SDS011;36308;46.312;25.288;2023-04-15T04:21:59;8.93;;;4.47;;
50393;SDS011;36308;46.312;25.288;2023-04-15T04:24:24;10.23;;;5.40;;
50393;SDS011;36308;46.312;25.288;2023-04-15T04:26:50;16.65;;;9.13;;
50393;SDS011;36308;46.312;25.288;2023-04-15T04:29:16;14.40;;;5.45;;
50393;SDS011;36308;46.312;25.288;2023-04-15T04:31:41;46.25;;;21.38;;
50393;SDS011;36308;46.312;25.288;2023-04-15T04:34:07;41.42;;;19.00;;
50393;SDS011;36308;46.312;25.288;2023-04-15T04:36:32;42.63;;;17.80;;
50393;SDS011;36308;46.312;25.288;2023-04-15T04:38:58;32.30;;;17.65;;
50393;SDS011;36308;46.312;25.288;2023-04-15T04:41:25;23.70;;;14.63;;
50393;SDS011;36308;46.312;25.288;2023-04-15T04:43:51;20.35;;;12.05;;
50393;SDS011;36308;46.312;25.288;2023-04-15T04:46:16;22.70;;;13.00;;
50393;SDS011;36308;46.312;25.288;2023-04-15T04:48:42;19.63;;;12.70;;
50393;SDS011;36308;46.312;25.288;2023-04-15T04:51:07;20.92;;;13.23;;
50393;SDS011;36308;46.312;25.288;2023-04-15T04:53:33;24.25;;;14.50;;
50393;SDS011;36308;46.312;25.288;2023-04-15T04:55:59;20.88;;;14.80;;
50393;SDS011;36308;46.312;25.288;2023-04-15T04:58:25;27.83;;;18.50;;
50393;SDS011;36308;46.312;25.288;2023-04-15T05:00:51;29.65;;;19.48;;
50393;SDS011;36308;46.312;25.288;2023-04-15T05:03:17;28.48;;;20.27;;
50393;SDS011;36308;46.312;25.288;2023-04-15T05:05:42;25.83;;;17.73;;
50393;SDS011;36308;46.312;25.288;2023-04-15T05:08:08;27.13;;;17.70;;
50393;SDS011;36308;46.312;25.288;2023-04-15T05:10:33;22.50;;;15.32;;
50393;SDS011;36308;46.312;25.288;2023-04-15T05:12:59;24.10;;;16.27;;
50393;SDS011;36308;46.312;25.288;2023-04-15T05:15:25;26.90;;;16.60;;
50393;SDS011;36308;46.312;25.288;2023-04-15T05:17:51;18.83;;;11.50;;
50393;SDS011;36308;46.312;25.288;2023-04-15T05:20:16;14.40;;;8.63;;
50393;SDS011;36308;46.312;25.288;2023-04-15T05:22:42;14.95;;;9.02;;
50393;SDS011;36308;46.312;25.288;2023-04-15T05:25:07;12.50;;;7.35;;
50393;SDS011;36308;46.312;25.288;2023-04-15T05:27:34;20.08;;;12.43;;
50393;SDS011;36308;46.312;25.288;2023-04-15T05:30:00;13.85;;;9.45;;
50393;SDS011;36308;46.312;25.288;2023-04-15T05:32:25;13.88;;;10.02;;
50393;SDS011;36308;46.312;25.288;2023-04-15T05:34:51;20.77;;;15.20;;
50393;SDS011;36308;46.312;25.288;2023-04-15T05:37:16;13.23;;;8.45;;
50393;SDS011;36308;46.312;25.288;2023-04-15T05:39:45;12.13;;;8.32;;
50393;SDS011;36308;46.312;25.288;2023-04-15T05:42:10;13.75;;;10.43;;
50393;SDS011;36308;46.312;25.288;2023-04-15T05:44:36;13.32;;;9.43;;
50393;SDS011;36308;46.312;25.288;2023-04-15T05:47:02;12.90;;;9.35;;
50393;SDS011;36308;46.312;25.288;2023-04-15T05:49:28;13.95;;;8.98;;
50393;SDS011;36308;46.312;25.288;2023-04-15T05:51:53;13.10;;;10.00;;
50393;SDS011;36308;46.312;25.288;2023-04-15T05:54:19;13.25;;;10.20;;
50393;SDS011;36308;46.312;25.288;2023-04-15T05:56:46;20.17;;;13.00;;
50393;SDS011;36308;46.312;25.288;2023-04-15T05:59:11;9.60;;;7.32;;
50393;SDS011;36308;46.312;25.288;2023-04-15T06:01:37;12.27;;;8.38;;
50393;SDS011;36308;46.312;25.288;2023-04-15T06:04:02;14.32;;;8.38;;
50393;SDS011;36308;46.312;25.288;2023-04-15T06:06:28;11.88;;;7.47;;
50393;SDS011;36308;46.312;25.288;2023-04-15T06:08:53;13.27;;;7.47;;
50393;SDS011;36308;46.312;25.288;2023-04-15T06:11:20;17.80;;;11.10;;
50393;SDS011;36308;46.312;25.288;2023-04-15T06:13:46;18.85;;;12.13;;
50393;SDS011;36308;46.312;25.288;2023-04-15T06:16:11;8.38;;;5.28;;
50393;SDS011;36308;46.312;25.288;2023-04-15T06:18:37;10.63;;;5.97;;
50393;SDS011;36308;46.312;25.288;2023-04-15T06:21:03;9.48;;;5.60;;
50393;SDS011;36308;46.312;25.288;2023-04-15T06:23:28;9.15;;;5.57;;
50393;SDS011;36308;46.312;25.288;2023-04-15T06:25:54;9.18;;;5.85;;
50393;SDS011;36308;46.312;25.288;2023-04-15T06:28:20;8.73;;;5.22;;
50393;SDS011;36308;46.312;25.288;2023-04-15T06:30:45;9.00;;;5.35;;
50393;SDS011;36308;46.312;25.288;2023-04-15T06:33:11;10.05;;;6.22;;
50393;SDS011;36308;46.312;25.288;2023-04-15T06:35:37;12.52;;;8.20;;
50393;SDS011;36308;46.312;25.288;2023-04-15T06:38:03;13.35;;;7.47;;
50393;SDS011;36308;46.312;25.288;2023-04-15T06:40:29;12.35;;;7.13;;
50393;SDS011;36308;46.312;25.288;2023-04-15T06:42:55;11.35;;;6.53;;
50393;SDS011;36308;46.312;25.288;2023-04-15T06:45:20;12.80;;;7.00;;
50393;SDS011;36308;46.312;25.288;2023-04-15T06:47:46;7.57;;;4.30;;
50393;SDS011;36308;46.312;25.288;2023-04-15T06:50:11;6.10;;;3.60;;
50393;SDS011;36308;46.312;25.288;2023-04-15T06:52:37;8.02;;;4.22;;
50393;SDS011;36308;46.312;25.288;2023-04-15T06:55:03;13.13;;;7.25;;
50393;SDS011;36308;46.312;25.288;2023-04-15T06:57:29;10.43;;;5.35;;
50393;SDS011;36308;46.312;25.288;2023-04-15T06:59:54;8.60;;;4.88;;
50393;SDS011;36308;46.312;25.288;2023-04-15T07:02:20;12.23;;;4.63;;
50393;SDS011;36308;46.312;25.288;2023-04-15T07:04:46;11.30;;;5.00;;
50393;SDS011;36308;46.312;25.288;2023-04-15T07:07:11;13.40;;;5.00;;
50393;SDS011;36308;46.312;25.288;2023-04-15T07:09:37;8.75;;;4.85;;
50393;SDS011;36308;46.312;25.288;2023-04-15T07:12:02;10.15;;;5.15;;
50393;SDS011;36308;46.312;25.288;2023-04-15T07:14:28;10.07;;;4.53;;
50393;SDS011;36308;46.312;25.288;2023-04-15T07:16:54;6.50;;;4.35;;
50393;SDS011;36308;46.312;25.288;2023-04-15T07:19:20;17.27;;;10.73;;
50393;SDS011;36308;46.312;25.288;2023-04-15T07:21:46;20.33;;;11.77;;
50393;SDS011;36308;46.312;25.288;2023-04-15T07:24:11;15.88;;;9.20;;
50393;SDS011;36308;46.312;25.288;2023-04-15T07:26:41;11.52;;;5.55;;
50393;SDS011;36308;46.312;25.288;2023-04-15T07:29:06;10.25;;;5.93;;
50393;SDS011;36308;46.312;25.288;2023-04-15T07:31:31;11.52;;;5.80;;
50393;SDS011;36308;46.312;25.288;2023-04-15T07:33:57;7.95;;;4.47;;
50393;SDS011;36308;46.312;25.288;2023-04-15T07:36:23;10.73;;;3.20;;
50393;SDS011;36308;46.312;25.288;2023-04-15T07:38:49;5.35;;;2.38;;
50393;SDS011;36308;46.312;25.288;2023-04-15T07:41:14;5.72;;;2.80;;
50393;SDS011;36308;46.312;25.288;2023-04-15T07:43:40;5.50;;;3.75;;
50393;SDS011;36308;46.312;25.288;2023-04-15T07:46:05;4.28;;;2.40;;
50393;SDS011;36308;46.312;25.288;2023-04-15T07:48:31;4.38;;;2.92;;
50393;SDS011;36308;46.312;25.288;2023-04-15T07:50:57;6.15;;;2.33;;
50393;SDS011;36308;46.312;25.288;2023-04-15T07:53:22;4.85;;;2.67;;
50393;SDS011;36308;46.312;25.288;2023-04-15T07:55:48;4.50;;;2.38;;
50393;SDS011;36308;46.312;25.288;2023-04-15T07:58:13;5.13;;;2.55;;
50393;SDS011;36308;46.312;25.288;2023-04-15T08:00:39;6.43;;;2.83;;
50393;SDS011;36308;46.312;25.288;2023-04-15T08:03:05;6.30;;;3.00;;
50393;SDS011;36308;46.312;25.288;2023-04-15T08:05:31;7.07;;;2.60;;
50393;SDS011;36308;46.312;25.288;2023-04-15T08:07:57;5.57;;;2.55;;
50393;SDS011;36308;46.312;25.288;2023-04-15T08:10:22;4.80;;;2.60;;
50393;SDS011;36308;46.312;25.288;2023-04-15T08:12:48;3.55;;;2.10;;
50393;SDS011;36308;46.312;25.288;2023-04-15T08:15:13;7.10;;;2.85;;
50393;SDS011;36308;46.312;25.288;2023-04-15T08:17:39;7.55;;;3.15;;
50393;SDS011;36308;46.312;25.288;2023-04-15T08:20:05;6.22;;;3.20;;
50393;SDS011;36308;46.312;25.288;2023-04-15T08:22:31;4.70;;;2.58;;
50393;SDS011;36308;46.312;25.288;2023-04-15T08:24:56;6.47;;;3.25;;
50393;SDS011;36308;46.312;25.288;2023-04-15T08:27:22;5.13;;;2.47;;
50393;SDS011;36308;46.312;25.288;2023-04-15T08:29:47;5.70;;;3.17;;
50393;SDS011;36308;46.312;25.288;2023-04-15T08:32:13;6.85;;;2.05;;
50393;SDS011;36308;46.312;25.288;2023-04-15T08:34:38;5.57;;;1.65;;
50393;SDS011;36308;46.312;25.288;2023-04-15T08:37:04;4.63;;;1.90;;
50393;SDS011;36308;46.312;25.288;2023-04-15T08:39:31;2.65;;;1.02;;
50393;SDS011;36308;46.312;25.288;2023-04-15T08:42:03;2.25;;;1.10;;
50393;SDS011;36308;46.312;25.288;2023-04-15T08:44:36;3.75;;;1.30;;
50393;SDS011;36308;46.312;25.288;2023-04-15T08:47:02;3.47;;;1.17;;
50393;SDS011;36308;46.312;25.288;2023-04-15T08:49:31;6.43;;;1.30;;
50393;SDS011;36308;46.312;25.288;2023-04-15T08:51:58;1.05;;;0.75;;
50393;SDS011;36308;46.312;25.288;2023-04-15T08:54:24;5.28;;;1.20;;
50393;SDS011;36308;46.312;25.288;2023-04-15T08:56:51;1.80;;;0.50;;
50393;SDS011;36308;46.312;25.288;2023-04-15T08:59:18;1.67;;;0.60;;
50393;SDS011;36308;46.312;25.288;2023-04-15T09:01:46;2.22;;;0.60;;
50393;SDS011;36308;46.312;25.288;2023-04-15T09:04:12;4.40;;;1.00;;
50393;SDS011;36308;46.312;25.288;2023-04-15T09:06:38;5.03;;;0.90;;
50393;SDS011;36308;46.312;25.288;2023-04-15T09:09:04;1.35;;;0.80;;
50393;SDS011;36308;46.312;25.288;2023-04-15T09:11:30;3.17;;;0.63;;
50393;SDS011;36308;46.312;25.288;2023-04-15T09:13:55;4.43;;;0.75;;
50393;SDS011;36308;46.312;25.288;2023-04-15T09:16:21;7.72;;;1.40;;
50393;SDS011;36308;46.312;25.288;2023-04-15T09:18:46;8.23;;;3.85;;
50393;SDS011;36308;46.312;25.288;2023-04-15T09:21:13;4.47;;;1.30;;
50393;SDS011;36308;46.312;25.288;2023-04-15T09:23:40;3.75;;;1.70;;
50393;SDS011;36308;46.312;25.288;2023-04-15T09:26:18;4.05;;;0.85;;
50393;SDS011;36308;46.312;25.288;2023-04-15T09:28:44;4.43;;;1.23;;
50393;SDS011;36308;46.312;25.288;2023-04-15T09:31:09;1.83;;;0.77;;
50393;SDS011;36308;46.312;25.288;2023-04-15T09:33:35;2.65;;;1.20;;
50393;SDS011;36308;46.312;25.288;2023-04-15T09:36:17;1.83;;;0.65;;
50393;SDS011;36308;46.312;25.288;2023-04-15T09:39:16;1.95;;;0.90;;
50393;SDS011;36308;46.312;25.288;2023-04-15T09:41:35;2.97;;;1.08;;
50393;SDS011;36308;46.312;25.288;2023-04-15T09:44:00;1.73;;;0.73;;
50393;SDS011;36308;46.312;25.288;2023-04-15T09:46:41;3.25;;;0.90;;
50393;SDS011;36308;46.312;25.288;2023-04-15T09:49:09;4.22;;;0.98;;
50393;SDS011;36308;46.312;25.288;2023-04-15T09:51:36;1.92;;;0.70;;
50393;SDS011;36308;46.312;25.288;2023-04-15T09:54:01;5.07;;;0.88;;
50393;SDS011;36308;46.312;25.288;2023-04-15T09:56:34;1.02;;;0.38;;
50393;SDS011;36308;46.312;25.288;2023-04-15T09:59:05;1.20;;;0.90;;
50393;SDS011;36308;46.312;25.288;2023-04-15T10:01:32;3.28;;;0.77;;
50393;SDS011;36308;46.312;25.288;2023-04-15T10:03:57;3.00;;;0.70;;
50393;SDS011;36308;46.312;25.288;2023-04-15T10:06:25;3.15;;;0.60;;
50393;SDS011;36308;46.312;25.288;2023-04-15T10:08:51;2.53;;;1.70;;
50393;SDS011;36308;46.312;25.288;2023-04-15T10:11:18;0.63;;;0.50;;
50393;SDS011;36308;46.312;25.288;2023-04-15T10:13:45;2.75;;;0.80;;
50393;SDS011;36308;46.312;25.288;2023-04-15T10:16:13;3.60;;;0.93;;
50393;SDS011;36308;46.312;25.288;2023-04-15T10:18:44;3.80;;;0.70;;
50393;SDS011;36308;46.312;25.288;2023-04-15T10:21:11;5.15;;;1.58;;
50393;SDS011;36308;46.312;25.288;2023-04-15T10:23:39;2.30;;;0.90;;
50393;SDS011;36308;46.312;25.288;2023-04-15T10:26:05;5.43;;;0.90;;
50393;SDS011;36308;46.312;25.288;2023-04-15T10:28:31;2.92;;;0.50;;
50393;SDS011;36308;46.312;25.288;2023-04-15T10:30:57;2.90;;;1.08;;
50393;SDS011;36308;46.312;25.288;2023-04-15T10:33:24;1.45;;;0.90;;
50393;SDS011;36308;46.312;25.288;2023-04-15T10:35:50;1.27;;;0.50;;
50393;SDS011;36308;46.312;25.288;2023-04-15T10:38:30;4.57;;;1.65;;
50393;SDS011;36308;46.312;25.288;2023-04-15T10:43:59;2.53;;;0.88;;
50393;SDS011;36308;46.312;25.288;2023-04-15T10:54:12;10.20;;;2.85;;
50393;SDS011;36308;46.312;25.288;2023-04-15T10:56:40;3.55;;;1.05;;
50393;SDS011;36308;46.312;25.288;2023-04-15T10:59:06;2.55;;;0.70;;
50393;SDS011;36308;46.312;25.288;2023-04-15T11:12:46;4.50;;;2.00;;
50393;SDS011;36308;46.312;25.288;2023-04-15T11:18:10;2.42;;;0.68;;
50393;SDS011;36308;46.312;25.288;2023-04-15T11:20:37;1.17;;;0.52;;
50393;SDS011;36308;46.312;25.288;2023-04-15T11:23:04;2.88;;;1.65;;
50393;SDS011;36308;46.312;25.288;2023-04-15T11:25:31;1.88;;;0.70;;
50393;SDS011;36308;46.312;25.288;2023-04-15T11:27:58;3.58;;;0.80;;
50393;SDS011;36308;46.312;25.288;2023-04-15T11:30:28;6.50;;;0.88;;
50393;SDS011;36308;46.312;25.288;2023-04-15T11:32:59;3.42;;;1.20;;
50393;SDS011;36308;46.312;25.288;2023-04-15T11:35:27;2.90;;;1.13;;
50393;SDS011;36308;46.312;25.288;2023-04-15T11:37:53;2.35;;;1.00;;
50393;SDS011;36308;46.312;25.288;2023-04-15T11:40:23;1.88;;;0.75;;
50393;SDS011;36308;46.312;25.288;2023-04-15T11:45:34;2.33;;;0.98;;
50393;SDS011;36308;46.312;25.288;2023-04-15T11:48:12;3.20;;;0.73;;
50393;SDS011;36308;46.312;25.288;2023-04-15T11:50:37;3.50;;;0.70;;
50393;SDS011;36308;46.312;25.288;2023-04-15T11:53:07;1.58;;;0.70;;
50393;SDS011;36308;46.312;25.288;2023-04-15T11:55:41;2.58;;;1.20;;
50393;SDS011;36308;46.312;25.288;2023-04-15T11:58:15;2.42;;;0.80;;
50393;SDS011;36308;46.312;25.288;2023-04-15T12:00:47;4.45;;;0.80;;
50393;SDS011;36308;46.312;25.288;2023-04-15T12:03:25;1.67;;;0.80;;
50393;SDS011;36308;46.312;25.288;2023-04-15T12:14:38;1.70;;;0.80;;
50393;SDS011;36308;46.312;25.288;2023-04-15T12:16:47;3.10;;;0.80;;
50393;SDS011;36308;46.312;25.288;2023-04-15T12:19:21;2.30;;;0.82;;
50393;SDS011;36308;46.312;25.288;2023-04-15T12:21:48;1.25;;;0.70;;
50393;SDS011;36308;46.312;25.288;2023-04-15T12:24:14;2.60;;;1.00;;
50393;SDS011;36308;46.312;25.288;2023-04-15T12:29:13;2.47;;;0.90;;
50393;SDS011;36308;46.312;25.288;2023-04-15T12:31:47;2.75;;;0.73;;
50393;SDS011;36308;46.312;25.288;2023-04-15T12:34:16;1.13;;;0.45;;
50393;SDS011;36308;46.312;25.288;2023-04-15T12:36:44;3.10;;;0.85;;
50393;SDS011;36308;46.312;25.288;2023-04-15T12:39:09;3.88;;;1.10;;
50393;SDS011;36308;46.312;25.288;2023-04-15T12:41:35;1.10;;;0.50;;
50393;SDS011;36308;46.312;25.288;2023-04-15T12:44:00;1.63;;;0.70;;
50393;SDS011;36308;46.312;25.288;2023-04-15T12:46:26;1.40;;;0.45;;
50393;SDS011;36308;46.312;25.288;2023-04-15T12:48:52;3.45;;;0.70;;
50393;SDS011;36308;46.312;25.288;2023-04-15T12:51:18;3.35;;;0.50;;
50393;SDS011;36308;46.312;25.288;2023-04-15T12:53:47;3.28;;;0.70;;
50393;SDS011;36308;46.312;25.288;2023-04-15T12:56:13;0.80;;;0.30;;
50393;SDS011;36308;46.312;25.288;2023-04-15T12:58:39;2.55;;;0.43;;
50393;SDS011;36308;46.312;25.288;2023-04-15T13:01:05;0.98;;;0.40;;
50393;SDS011;36308;46.312;25.288;2023-04-15T13:03:30;3.53;;;0.93;;
50393;SDS011;36308;46.312;25.288;2023-04-15T13:05:56;3.17;;;0.73;;
50393;SDS011;36308;46.312;25.288;2023-04-15T13:08:21;2.22;;;0.68;;
50393;SDS011;36308;46.312;25.288;2023-04-15T13:10:47;1.38;;;0.60;;
50393;SDS011;36308;46.312;25.288;2023-04-15T13:13:13;2.13;;;0.70;;
50393;SDS011;36308;46.312;25.288;2023-04-15T13:15:38;1.33;;;0.65;;
50393;SDS011;36308;46.312;25.288;2023-04-15T13:18:05;4.13;;;0.70;;
50393;SDS011;36308;46.312;25.288;2023-04-15T13:20:31;5.63;;;0.95;;
50393;SDS011;36308;46.312;25.288;2023-04-15T13:22:56;2.40;;;0.80;;
50393;SDS011;36308;46.312;25.288;2023-04-15T13:25:22;2.30;;;0.70;;
50393;SDS011;36308;46.312;25.288;2023-04-15T13:27:48;0.90;;;0.70;;
50393;SDS011;36308;46.312;25.288;2023-04-15T13:30:14;1.88;;;0.70;;
50393;SDS011;36308;46.312;25.288;2023-04-15T13:32:39;1.33;;;0.77;;
50393;SDS011;36308;46.312;25.288;2023-04-15T13:35:05;1.75;;;0.52;;
50393;SDS011;36308;46.312;25.288;2023-04-15T13:37:30;1.80;;;0.70;;
50393;SDS011;36308;46.312;25.288;2023-04-15T13:39:56;2.88;;;0.70;;
50393;SDS011;36308;46.312;25.288;2023-04-15T13:42:22;0.68;;;0.40;;
50393;SDS011;36308;46.312;25.288;2023-04-15T13:44:51;1.00;;;0.50;;
50393;SDS011;36308;46.312;25.288;2023-04-15T13:47:17;1.70;;;0.60;;
50393;SDS011;36308;46.312;25.288;2023-04-15T13:49:43;3.35;;;1.00;;
50393;SDS011;36308;46.312;25.288;2023-04-15T13:52:09;2.63;;;0.80;;
50393;SDS011;36308;46.312;25.288;2023-04-15T13:54:35;2.17;;;0.80;;
50393;SDS011;36308;46.312;25.288;2023-04-15T13:57:01;2.25;;;0.85;;
50393;SDS011;36308;46.312;25.288;2023-04-15T13:59:26;3.28;;;1.00;;
50393;SDS011;36308;46.312;25.288;2023-04-15T14:01:52;3.85;;;0.80;;
50393;SDS011;36308;46.312;25.288;2023-04-15T14:04:17;1.88;;;0.60;;
50393;SDS011;36308;46.312;25.288;2023-04-15T14:06:43;4.38;;;1.42;;
50393;SDS011;36308;46.312;25.288;2023-04-15T14:09:09;3.65;;;0.70;;
50393;SDS011;36308;46.312;25.288;2023-04-15T14:11:34;0.95;;;0.63;;
50393;SDS011;36308;46.312;25.288;2023-04-15T14:14:02;0.88;;;0.55;;
50393;SDS011;36308;46.312;25.288;2023-04-15T14:16:27;3.05;;;1.20;;
50393;SDS011;36308;46.312;25.288;2023-04-15T14:18:53;4.93;;;1.40;;
50393;SDS011;36308;46.312;25.288;2023-04-15T14:21:18;5.45;;;2.47;;
50393;SDS011;36308;46.312;25.288;2023-04-15T14:23:44;3.60;;;1.80;;
50393;SDS011;36308;46.312;25.288;2023-04-15T14:26:10;2.13;;;1.15;;
50393;SDS011;36308;46.312;25.288;2023-04-15T14:28:35;2.10;;;0.80;;
50393;SDS011;36308;46.312;25.288;2023-04-15T14:31:03;1.73;;;0.73;;
50393;SDS011;36308;46.312;25.288;2023-04-15T14:33:28;2.15;;;0.60;;
50393;SDS011;36308;46.312;25.288;2023-04-15T14:35:54;1.40;;;0.70;;
50393;SDS011;36308;46.312;25.288;2023-04-15T14:38:20;1.27;;;0.63;;
50393;SDS011;36308;46.312;25.288;2023-04-15T14:40:46;3.13;;;0.85;;
50393;SDS011;36308;46.312;25.288;2023-04-15T14:43:12;2.35;;;0.73;;
50393;SDS011;36308;46.312;25.288;2023-04-15T14:45:37;1.25;;;0.93;;
50393;SDS011;36308;46.312;25.288;2023-04-15T14:48:03;3.97;;;0.70;;
50393;SDS011;36308;46.312;25.288;2023-04-15T14:50:30;3.10;;;0.60;;
50393;SDS011;36308;46.312;25.288;2023-04-15T14:52:57;2.53;;;0.90;;
50393;SDS011;36308;46.312;25.288;2023-04-15T14:55:22;1.83;;;0.80;;
50393;SDS011;36308;46.312;25.288;2023-04-15T14:57:48;2.42;;;0.70;;
50393;SDS011;36308;46.312;25.288;2023-04-15T15:00:14;3.17;;;0.80;;
50393;SDS011;36308;46.312;25.288;2023-04-15T15:02:39;2.22;;;1.10;;
50393;SDS011;36308;46.312;25.288;2023-04-15T15:05:06;3.25;;;0.88;;